Portada
METAR-TAF:

METAR-TAF

Aeroports :

Damasc, Síria

latitud: 33-25N, longitud: 036-31E, altitud: 608 m

Observació

L'informe es va fer fa 35 minuts, a les 00:00 UTC
Vent 11 kt del Sud/Sud-Oest
Temperatura 21°C
Humitat 83%
Pressió 1010 hPa
Visibilitat 10 km o més
sense núvols per sota de 1500 mi sense presència de cumulonimbus.

METAR: OSDI 160000Z 21011KT CAVOK 21/18 Q1010

Hora: 03:35 (00:35 UTC)

Pronòstic

L'informe es va fer fa 35 minuts, a les 00:00 UTC
Pronòstic vàlid del 16 a les 00 UTC al 17 a les 06 UTC
Vent 10 kt del Sud-Oest
Visibilitat 10 km o més
sense núvols per sota de 1500 mi sense presència de cumulonimbus.
Temporalment
l' 16 a les 12 UTC al 16 a les 18 UTC
Vent 15 kt del Oest/Sud-Oest amb ràfegues de 25 kt
Visibilitat 10 km o més
Escasses núvols a una alçada de 3000 ft

TAF: OSDI 160000Z 1600/1706 22010KT CAVOK TEMPO 1612/1618 24015G25KT 9999 FEW030

Observacions i pronòstics meteorològics de més de 4000 aeroports (METAR i TAF).

Les estacions disponibles són els punts grocs i vermells al mapa.

Posi el ratolí al punt desitjat per veure el nom de l'estació.

Feu clic per veure les observacions i els pronòstics meteorològics.

Per canviar el mapa: feu clic els botons verds amb una creu de color negre per apropar; al botó verd amb un guió per allunyar la imatge; o en les fletxes verdes per a mapes adjacents.


METAR-TAF: